| time (UTC) | temp F | wind direction | speed MPH | gust MPH | rain 1hr in | rain 24hr in | rain mn in | humidity % | barometer mb |
| 20260503021606 | 41 | 111 | 0.0 | 0.0 | 0.00 | 0.01 | 0.01 | 71 | 1051.9 |
| 20260503021103 | 41 | 112 | 0.0 | 0.0 | 0.00 | 0.01 | 0.01 | 71 | 1051.6 |
| 20260503020600 | 42 | 110 | 0.0 | 0.0 | 0.00 | 0.01 | 0.01 | 69 | 1051.6 |
| 20260503020056 | 43 | 111 | 0.0 | 0.0 | 0.00 | 0.01 | 0.01 | 68 | 1051.6 |
| 20260503015554 | 43 | 100 | 1.0 | 1.0 | 0.00 | 0.01 | 0.01 | 68 | 1051.6 |
| 20260503015051 | 43 | 120 | 0.0 | 0.0 | 0.00 | 0.01 | 0.01 | 66 | 1051.2 |
| 20260503014546 | 43 | 116 | 0.0 | 0.0 | 0.00 | 0.01 | 0.01 | 67 | 1051.6 |
| 20260503014045 | 44 | 111 | 0.0 | 0.0 | 0.00 | 0.01 | 0.01 | 66 | 1051.6 |
| 20260503013542 | 44 | 114 | 0.0 | 1.0 | 0.00 | 0.01 | 0.01 | 64 | 1051.2 |
| 20260503013039 | 44 | 114 | 0.0 | 0.0 | 0.00 | 0.01 | 0.01 | 64 | 1051.6 |
| 20260503012537 | 44 | 111 | 0.0 | 0.0 | 0.00 | 0.01 | 0.01 | 63 | 1051.2 |
| 20260503012033 | 44 | 115 | 0.0 | 0.0 | 0.00 | 0.01 | 0.01 | 63 | 1051.2 |
| 20260503011529 | 44 | 101 | 0.0 | 1.0 | 0.00 | 0.01 | 0.01 | 62 | 1051.2 |
| 20260503011027 | 44 | 113 | 0.0 | 0.0 | 0.00 | 0.01 | 0.01 | 62 | 1051.2 |
| 20260503010523 | 45 | 110 | 0.0 | 0.0 | 0.00 | 0.01 | 0.01 | 62 | 1051.2 |
| 20260503010021 | 45 | 94 | 1.0 | 1.0 | 0.00 | 0.01 | 0.01 | 61 | 1050.9 |
| 20260503005518 | 45 | 90 | 2.0 | 2.0 | 0.00 | 0.01 | 0.01 | 61 | 1051.2 |
| 20260503005015 | 45 | 108 | 0.0 | 1.0 | 0.00 | 0.01 | 0.01 | 60 | 1051.2 |
| 20260503004511 | 45 | 114 | 0.0 | 1.0 | 0.00 | 0.01 | 0.01 | 60 | 1051.2 |
| 20260503004009 | 45 | 138 | 1.0 | 2.0 | 0.00 | 0.01 | 0.01 | 59 | 1051.2 |
| 20260503003505 | 45 | 87 | 1.0 | 2.0 | 0.00 | 0.01 | 0.01 | 60 | 1050.9 |
| 20260503003003 | 45 | 147 | 1.0 | 1.0 | 0.00 | 0.01 | 0.01 | 59 | 1050.9 |
| 20260503002500 | 45 | 147 | 1.0 | 2.0 | 0.00 | 0.01 | 0.01 | 59 | 1051.2 |
| 20260503001955 | 45 | 106 | 0.0 | 2.0 | 0.00 | 0.01 | 0.01 | 59 | 1050.9 |
| 20260503001453 | 45 | 262 | 2.0 | 2.0 | 0.00 | 0.01 | 0.01 | 59 | 1050.9 |
| 20260503000950 | 45 | 99 | 0.0 | 2.0 | 0.00 | 0.01 | 0.01 | 59 | 1050.9 |
| 20260503000447 | 46 | 108 | 0.0 | 1.0 | 0.00 | 0.01 | 0.01 | 57 | 1050.9 |
| 20260502235944 | 46 | 38 | 2.0 | 2.0 | 0.00 | 0.01 | 0.01 | 56 | 1050.9 |
| 20260502235441 | 46 | 31 | 1.0 | 3.0 | 0.00 | 0.01 | 0.01 | 55 | 1050.9 |
| 20260502234939 | 46 | 347 | 3.0 | 3.0 | 0.00 | 0.01 | 0.01 | 54 | 1050.9 |
| 20260502234435 | 46 | 10 | 5.0 | 6.0 | 0.00 | 0.01 | 0.01 | 54 | 1050.9 |
| 20260502233932 | 46 | 87 | 1.0 | 3.0 | 0.00 | 0.01 | 0.01 | 54 | 1050.9 |
| 20260502233427 | 46 | 228 | 1.0 | 3.0 | 0.00 | 0.01 | 0.01 | 53 | 1050.9 |
| 20260502232925 | 46 | 153 | 1.0 | 3.0 | 0.00 | 0.01 | 0.01 | 53 | 1050.9 |
| 20260502232421 | 46 | 25 | 2.0 | 6.0 | 0.00 | 0.01 | 0.01 | 53 | 1050.6 |
| 20260502231918 | 46 | 105 | 1.0 | 3.0 | 0.00 | 0.01 | 0.01 | 52 | 1050.9 |
| 20260502231415 | 46 | 57 | 3.0 | 5.0 | 0.00 | 0.01 | 0.01 | 52 | 1050.6 |
| 20260502230913 | 46 | 6 | 4.0 | 6.0 | 0.00 | 0.01 | 0.01 | 52 | 1050.9 |
| 20260502230411 | 47 | 101 | 0.0 | 2.0 | 0.00 | 0.01 | 0.01 | 52 | 1050.9 |
| 20260502225908 | 47 | 94 | 1.0 | 3.0 | 0.00 | 0.01 | 0.01 | 51 | 1050.6 |
| 20260502225359 | 47 | 99 | 0.0 | 2.0 | 0.00 | 0.01 | 0.01 | 52 | 1050.6 |
| 20260502224856 | 47 | 1 | 2.0 | 3.0 | 0.00 | 0.01 | 0.01 | 51 | 1050.9 |
| 20260502224351 | 47 | 83 | 0.0 | 5.0 | 0.00 | 0.01 | 0.01 | 52 | 1050.6 |
| 20260502223849 | 47 | 6 | 2.0 | 3.0 | 0.00 | 0.01 | 0.01 | 52 | 1050.9 |
| 20260502223347 | 47 | 323 | 5.0 | 9.0 | 0.00 | 0.01 | 0.01 | 51 | 1050.6 |
| 20260502222844 | 48 | 285 | 2.0 | 3.0 | 0.00 | 0.01 | 0.01 | 52 | 1050.6 |
| 20260502222342 | 48 | 269 | 3.0 | 3.0 | 0.00 | 0.01 | 0.01 | 52 | 1050.6 |
| 20260502221838 | 48 | 0 | 5.0 | 8.0 | 0.00 | 0.01 | 0.01 | 52 | 1050.6 |
| 20260502221334 | 48 | 80 | 1.0 | 3.0 | 0.00 | 0.01 | 0.01 | 52 | 1050.6 |
| 20260502220832 | 48 | 88 | 1.0 | 1.0 | 0.00 | 0.01 | 0.01 | 53 | 1050.6 |
| 20260502220327 | 48 | 94 | 1.0 | 2.0 | 0.00 | 0.01 | 0.01 | 55 | 1050.6 |
| 20260502215824 | 48 | 101 | 1.0 | 3.0 | 0.00 | 0.01 | 0.01 | 54 | 1050.6 |
| 20260502215322 | 47 | 99 | 1.0 | 2.0 | 0.00 | 0.01 | 0.01 | 57 | 1050.6 |
| 20260502214818 | 48 | 112 | 1.0 | 2.0 | 0.00 | 0.01 | 0.01 | 56 | 1050.6 |
| 20260502214315 | 48 | 96 | 2.0 | 3.0 | 0.00 | 0.01 | 0.01 | 54 | 1050.6 |
| 20260502213812 | 48 | 115 | 0.0 | 5.0 | 0.00 | 0.01 | 0.01 | 54 | 1050.6 |
| 20260502213308 | 47 | 25 | 1.0 | 6.0 | 0.00 | 0.01 | 0.01 | 52 | 1050.6 |
| 20260502212808 | 48 | 280 | 2.0 | 7.0 | 0.00 | 0.01 | 0.01 | 45 | 1050.6 |
| 20260502212300 | 48 | 0 | 5.0 | 8.0 | 0.00 | 0.01 | 0.01 | 47 | 1050.6 |
| 20260502211756 | 49 | 353 | 4.0 | 8.0 | 0.00 | 0.01 | 0.01 | 50 | 1050.2 |
| 20260502211252 | 48 | 303 | 2.0 | 5.0 | 0.00 | 0.01 | 0.01 | 50 | 1050.2 |
| 20260502210749 | 49 | 358 | 2.0 | 3.0 | 0.00 | 0.01 | 0.01 | 49 | 1050.2 |
| 20260502210247 | 49 | 73 | 1.0 | 3.0 | 0.00 | 0.01 | 0.01 | 50 | 1050.2 |
| 20260502205744 | 48 | 172 | 3.0 | 7.0 | 0.00 | 0.01 | 0.01 | 48 | 1050.2 |
| 20260502205234 | 49 | 246 | 4.0 | 7.0 | 0.00 | 0.01 | 0.01 | 48 | 1050.2 |
| 20260502204732 | 48 | 95 | 1.0 | 6.0 | 0.00 | 0.01 | 0.01 | 52 | 1050.2 |
| 20260502204229 | 49 | 120 | 0.0 | 3.0 | 0.00 | 0.01 | 0.01 | 53 | 1050.2 |
| 20260502203727 | 49 | 259 | 1.0 | 5.0 | 0.00 | 0.01 | 0.01 | 50 | 1049.8 |
| 20260502203224 | 50 | 81 | 1.0 | 7.0 | 0.00 | 0.01 | 0.01 | 48 | 1050.2 |
| 20260502202718 | 50 | 240 | 3.0 | 8.0 | 0.00 | 0.01 | 0.01 | 49 | 1050.2 |
| 20260502202217 | 49 | 55 | 2.0 | 6.0 | 0.00 | 0.01 | 0.01 | 49 | 1050.2 |
| 20260502201714 | 49 | 65 | 1.0 | 6.0 | 0.00 | 0.01 | 0.01 | 51 | 1050.2 |
| 20260502201211 | 49 | 81 | 2.0 | 5.0 | 0.00 | 0.01 | 0.01 | 49 | 1050.6 |
| 20260502200706 | 49 | 131 | 1.0 | 5.0 | 0.00 | 0.01 | 0.01 | 53 | 1050.2 |
| 20260502200202 | 50 | 127 | 1.0 | 5.0 | 0.00 | 0.01 | 0.01 | 51 | 1050.2 |
| 20260502195700 | 48 | 329 | 3.0 | 7.0 | 0.00 | 0.01 | 0.01 | 52 | 1050.6 |
| 20260502195152 | 48 | 12 | 2.0 | 8.0 | 0.00 | 0.01 | 0.01 | 53 | 1050.6 |
| 20260502194648 | 49 | 24 | 2.0 | 6.0 | 0.00 | 0.01 | 0.01 | 51 | 1050.6 |
| 20260502194144 | 50 | 44 | 2.0 | 2.0 | 0.00 | 0.01 | 0.01 | 50 | 1050.2 |
| 20260502193641 | 50 | 320 | 3.0 | 7.0 | 0.00 | 0.01 | 0.01 | 49 | 1050.6 |
| 20260502193139 | 50 | 32 | 3.0 | 7.0 | 0.00 | 0.01 | 0.01 | 49 | 1050.6 |
| 20260502192633 | 51 | 239 | 3.0 | 8.0 | 0.00 | 0.01 | 0.01 | 47 | 1050.6 |
| 20260502192131 | 50 | 2 | 3.0 | 6.0 | 0.00 | 0.01 | 0.01 | 48 | 1050.6 |
| 20260502191628 | 50 | 226 | 1.0 | 7.0 | 0.00 | 0.01 | 0.01 | 50 | 1050.6 |
| 20260502191126 | 50 | 334 | 2.0 | 5.0 | 0.00 | 0.01 | 0.01 | 50 | 1050.6 |
| 20260502190623 | 50 | 121 | 2.0 | 5.0 | 0.00 | 0.01 | 0.01 | 52 | 1050.6 |
| 20260502190120 | 50 | 81 | 4.0 | 9.0 | 0.00 | 0.01 | 0.01 | 52 | 1050.6 |
| 20260502185615 | 49 | 81 | 1.0 | 3.0 | 0.00 | 0.01 | 0.01 | 52 | 1050.9 |
| 20260502185112 | 49 | 315 | 3.0 | 6.0 | 0.00 | 0.01 | 0.01 | 52 | 1050.9 |
| 20260502184609 | 48 | 304 | 3.0 | 10.0 | 0.00 | 0.01 | 0.01 | 54 | 1050.9 |
| 20260502184104 | 48 | 189 | 5.0 | 7.0 | 0.00 | 0.01 | 0.01 | 51 | 1050.9 |
| 20260502183600 | 49 | 232 | 5.0 | 8.0 | 0.00 | 0.01 | 0.01 | 50 | 1050.9 |
| 20260502183056 | 49 | 346 | 5.0 | 7.0 | 0.00 | 0.01 | 0.01 | 51 | 1050.9 |
| 20260502182551 | 49 | 3 | 4.0 | 10.0 | 0.00 | 0.01 | 0.01 | 51 | 1050.9 |
| 20260502182042 | 51 | 349 | 4.0 | 5.0 | 0.00 | 0.01 | 0.01 | 48 | 1050.9 |
| 20260502181540 | 50 | 287 | 7.0 | 10.0 | 0.00 | 0.01 | 0.01 | 49 | 1050.9 |
| 20260502181038 | 51 | 310 | 3.0 | 5.0 | 0.00 | 0.01 | 0.01 | 48 | 1050.9 |
| 20260502180534 | 50 | 245 | 2.0 | 5.0 | 0.00 | 0.01 | 0.01 | 48 | 1050.9 |
| 20260502170448 | 49 | 40 | 4.0 | 7.0 | 0.00 | 0.01 | 0.01 | 49 | 1051.2 |
| 20260502163931 | 48 | 334 | 3.0 | 7.0 | 0.00 | 0.01 | 0.01 | 52 | 1050.9 |
| 20260502163427 | 48 | 326 | 2.0 | 8.0 | 0.00 | 0.01 | 0.01 | 50 | 1051.2 |
| 20260502162926 | 47 | 318 | 5.0 | 7.0 | 0.00 | 0.01 | 0.01 | 55 | 1050.9 |
| 20260502162422 | 48 | 78 | 1.0 | 5.0 | 0.00 | 0.01 | 0.01 | 58 | 1051.2 |
| 20260502161919 | 49 | 259 | 3.0 | 6.0 | 0.00 | 0.01 | 0.01 | 54 | 1051.2 |
| 20260502161415 | 47 | 320 | 3.0 | 6.0 | 0.00 | 0.01 | 0.01 | 54 | 1051.2 |
| 20260502160913 | 48 | 58 | 2.0 | 7.0 | 0.00 | 0.01 | 0.01 | 58 | 1051.2 |
| 20260502160411 | 47 | 204 | 3.0 | 7.0 | 0.00 | 0.01 | 0.01 | 54 | 1051.2 |
| 20260502151844 | 45 | 336 | 2.0 | 5.0 | 0.00 | 0.01 | 0.01 | 62 | 1051.6 |
| 20260502151340 | 47 | 300 | 3.0 | 5.0 | 0.00 | 0.01 | 0.01 | 61 | 1051.2 |
| 20260502150838 | 46 | 86 | 1.0 | 5.0 | 0.00 | 0.01 | 0.01 | 63 | 1051.2 |
| 20260502150334 | 46 | 140 | 2.0 | 5.0 | 0.00 | 0.01 | 0.01 | 63 | 1051.2 |
| 20260502130722 | 40 | 92 | 1.0 | 3.0 | 0.00 | 0.01 | 0.01 | 80 | 1051.2 |
| 20260502130220 | 39 | 33 | 1.0 | 2.0 | 0.00 | 0.01 | 0.01 | 79 | 1051.2 |
| 20260502123706 | 38 | 49 | 3.0 | 5.0 | 0.00 | 0.01 | 0.01 | 83 | 1050.9 |
| 20260502123203 | 38 | 13 | 3.0 | 3.0 | 0.00 | 0.01 | 0.01 | 84 | 1050.9 |
| 20260502122659 | 37 | 327 | 3.0 | 5.0 | 0.00 | 0.01 | 0.01 | 85 | 1050.9 |
| 20260502122155 | 37 | 1 | 1.0 | 2.0 | 0.00 | 0.01 | 0.01 | 88 | 1050.9 |
| 20260502121654 | 37 | 301 | 2.0 | 5.0 | 0.00 | 0.01 | 0.01 | 91 | 1050.6 |
| 20260502121151 | 36 | 339 | 2.0 | 2.0 | 0.00 | 0.01 | 0.01 | 94 | 1050.9 |
| 20260502120648 | 36 | 10 | 2.0 | 2.0 | 0.00 | 0.01 | 0.01 | 97 | 1050.9 |
| 20260502120144 | 35 | 19 | 1.0 | 3.0 | 0.00 | 0.01 | 0.01 | 98 | 1050.6 |
| 20260502115642 | 35 | 276 | 1.0 | 7.0 | 0.00 | 0.01 | 0.01 | 99 | 1050.6 |
| 20260502115138 | 35 | 75 | 1.0 | 3.0 | 0.00 | 0.01 | 0.01 | 99 | 1050.9 |
| 20260502114634 | 34 | 3 | 2.0 | 2.0 | 0.00 | 0.01 | 0.01 | 99 | 1050.6 |
| 20260502114132 | 34 | 31 | 2.0 | 3.0 | 0.00 | 0.01 | 0.01 | 99 | 1050.9 |
| 20260502113629 | 34 | 4 | 2.0 | 2.0 | 0.00 | 0.01 | 0.01 | 99 | 1050.6 |
| 20260502113127 | 33 | 90 | 0.0 | 3.0 | 0.00 | 0.01 | 0.01 | 99 | 1050.9 |
| 20260502112625 | 33 | 107 | 0.0 | 2.0 | 0.00 | 0.01 | 0.01 | 99 | 1050.9 |
| 20260502112122 | 33 | 108 | 0.0 | 0.0 | 0.00 | 0.01 | 0.01 | 99 | 1050.6 |
| 20260502111619 | 33 | 102 | 0.0 | 1.0 | 0.00 | 0.01 | 0.01 | 99 | 1050.6 |
| 20260502111116 | 33 | 109 | 0.0 | 1.0 | 0.00 | 0.01 | 0.01 | 99 | 1050.6 |
| 20260502110614 | 33 | 108 | 0.0 | 0.0 | 0.00 | 0.01 | 0.01 | 99 | 1050.6 |
| 20260502110112 | 33 | 102 | 0.0 | 1.0 | 0.00 | 0.01 | 0.01 | 99 | 1050.6 |
| 20260502105609 | 33 | 101 | 0.0 | 1.0 | 0.00 | 0.01 | 0.01 | 99 | 1050.2 |
| 20260502105106 | 33 | 110 | 0.0 | 1.0 | 0.00 | 0.01 | 0.01 | 99 | 1050.6 |
| 20260502104603 | 33 | 110 | 0.0 | 0.0 | 0.00 | 0.01 | 0.01 | 99 | 1050.2 |
| 20260502104100 | 33 | 111 | 0.0 | 1.0 | 0.00 | 0.01 | 0.01 | 99 | 1050.6 |
| 20260502103558 | 33 | 110 | 0.0 | 0.0 | 0.00 | 0.01 | 0.01 | 99 | 1050.2 |
| 20260502103056 | 33 | 93 | 0.0 | 1.0 | 0.00 | 0.01 | 0.01 | 99 | 1050.2 |
| 20260502102551 | 33 | 105 | 0.0 | 1.0 | 0.00 | 0.01 | 0.01 | 99 | 1050.6 |
| 20260502102049 | 33 | 103 | 0.0 | 1.0 | 0.00 | 0.01 | 0.01 | 99 | 1050.6 |
| 20260502101547 | 33 | 107 | 0.0 | 0.0 | 0.00 | 0.01 | 0.01 | 99 | 1050.6 |
| 20260502101045 | 33 | 110 | 0.0 | 0.0 | 0.00 | 0.01 | 0.01 | 99 | 1050.6 |
| 20260502100543 | 33 | 109 | 0.0 | 0.0 | 0.00 | 0.01 | 0.01 | 99 | 1050.2 |
| 20260502091518 | 33 | 115 | 0.0 | 0.0 | 0.00 | 0.01 | 0.01 | 99 | 1050.2 |
| 20260502091015 | 33 | 115 | 0.0 | 0.0 | 0.00 | 0.01 | 0.01 | 99 | 1050.6 |
| 20260502090512 | 33 | 115 | 0.0 | 0.0 | 0.00 | 0.01 | 0.01 | 99 | 1050.6 |
| 20260502071407 | 36 | 107 | 0.0 | 0.0 | 0.00 | 0.00 | 0.00 | 99 | 1050.2 |
| 20260502070905 | 36 | 110 | 0.0 | 0.0 | 0.00 | 0.00 | 0.00 | 99 | 1050.2 |
| 20260502070402 | 36 | 109 | 0.0 | 0.0 | 0.00 | 0.00 | 0.00 | 99 | 1050.6 |
| 20260502065901 | 36 | 113 | 0.0 | 0.0 | 0.00 | 0.00 | 0.00 | 99 | 1050.6 |
| 20260502065359 | 36 | 114 | 0.0 | 0.0 | 0.00 | 0.00 | 0.00 | 99 | 1050.2 |
| 20260502064856 | 36 | 114 | 0.0 | 0.0 | 0.00 | 0.00 | 0.00 | 99 | 1050.6 |
| 20260502064354 | 36 | 115 | 0.0 | 0.0 | 0.00 | 0.00 | 0.00 | 99 | 1050.6 |
| 20260502063851 | 36 | 115 | 0.0 | 0.0 | 0.00 | 0.00 | 0.00 | 99 | 1050.6 |
| 20260502063349 | 36 | 113 | 0.0 | 0.0 | 0.00 | 0.00 | 0.00 | 99 | 1050.9 |
| 20260502062846 | 37 | 111 | 0.0 | 0.0 | 0.00 | 0.00 | 0.00 | 99 | 1050.6 |
| 20260502062343 | 37 | 110 | 0.0 | 0.0 | 0.00 | 0.00 | 0.00 | 99 | 1050.6 |
| 20260502061842 | 37 | 110 | 0.0 | 0.0 | 0.00 | 0.00 | 0.00 | 99 | 1050.6 |
| 20260502061340 | 37 | 113 | 0.0 | 0.0 | 0.00 | 0.00 | 0.00 | 99 | 1050.6 |
| 20260502060835 | 37 | 111 | 0.0 | 0.0 | 0.00 | 0.00 | 0.00 | 99 | 1050.6 |
| 20260502060330 | 37 | 111 | 0.0 | 0.0 | 0.00 | 0.00 | 0.00 | 99 | 1050.6 |
| 20260502055828 | 38 | 115 | 0.0 | 0.0 | 0.00 | 0.00 | 0.00 | 99 | 1050.6 |
| 20260502055326 | 38 | 114 | 0.0 | 0.0 | 0.00 | 0.00 | 0.00 | 99 | 1050.6 |
| 20260502054825 | 38 | 114 | 0.0 | 0.0 | 0.00 | 0.00 | 0.00 | 99 | 1050.6 |
| 20260502054323 | 39 | 110 | 0.0 | 0.0 | 0.00 | 0.00 | 0.00 | 99 | 1050.9 |
| 20260502053820 | 39 | 110 | 0.0 | 1.0 | 0.00 | 0.00 | 0.00 | 99 | 1050.9 |
| 20260502053317 | 39 | 112 | 0.0 | 0.0 | 0.00 | 0.00 | 0.00 | 99 | 1050.9 |
| 20260502052815 | 38 | 124 | 1.0 | 1.0 | 0.00 | 0.00 | 0.00 | 99 | 1050.9 |
| 20260502052313 | 38 | 117 | 0.0 | 0.0 | 0.00 | 0.00 | 0.00 | 99 | 1050.9 |
| 20260502051810 | 38 | 94 | 1.0 | 1.0 | 0.00 | 0.00 | 0.00 | 99 | 1050.9 |
| 20260502051309 | 38 | 113 | 0.0 | 0.0 | 0.00 | 0.00 | 0.00 | 99 | 1050.9 |
| 20260502050804 | 38 | 116 | 0.0 | 0.0 | 0.00 | 0.00 | 0.00 | 99 | 1050.6 |
| 20260502050301 | 38 | 109 | 0.0 | 0.0 | 0.00 | 0.00 | 0.00 | 99 | 1050.6 |
| 20260502045758 | 38 | 113 | 0.0 | 0.0 | 0.00 | 0.00 | 0.00 | 99 | 1050.6 |
| 20260502045255 | 38 | 110 | 0.0 | 0.0 | 0.00 | 0.00 | 0.00 | 99 | 1050.9 |
| 20260502044752 | 39 | 105 | 0.0 | 0.0 | 0.00 | 0.00 | 0.00 | 99 | 1050.9 |
| 20260502044248 | 39 | 109 | 0.0 | 0.0 | 0.00 | 0.00 | 0.00 | 99 | 1050.9 |
| 20260502043745 | 39 | 111 | 0.0 | 0.0 | 0.00 | 0.00 | 0.00 | 98 | 1050.6 |
| 20260502043243 | 39 | 113 | 0.0 | 0.0 | 0.00 | 0.00 | 0.00 | 98 | 1050.9 |
| 20260502042742 | 38 | 115 | 0.0 | 0.0 | 0.00 | 0.00 | 0.00 | 98 | 1050.9 |
| 20260502042240 | 39 | 113 | 0.0 | 0.0 | 0.00 | 0.00 | 0.00 | 98 | 1050.6 |
| 20260502041737 | 39 | 115 | 0.0 | 0.0 | 0.00 | 0.00 | 0.00 | 98 | 1050.9 |
| 20260502041234 | 39 | 119 | 0.0 | 0.0 | 0.00 | 0.00 | 0.00 | 98 | 1050.9 |
| 20260502040731 | 38 | 115 | 0.0 | 0.0 | 0.00 | 0.00 | 0.00 | 98 | 1050.9 |
| 20260502040228 | 38 | 111 | 0.0 | 0.0 | 0.00 | 0.00 | 0.00 | 98 | 1050.6 |
| 20260502035724 | 39 | 111 | 0.0 | 0.0 | 0.00 | 0.10 | 0.10 | 98 | 1050.6 |
| 20260502035221 | 39 | 109 | 0.0 | 0.0 | 0.00 | 0.10 | 0.10 | 98 | 1050.9 |
| 20260502034718 | 39 | 111 | 0.0 | 0.0 | 0.00 | 0.10 | 0.10 | 98 | 1050.6 |
| 20260502034217 | 39 | 122 | 0.0 | 0.0 | 0.00 | 0.10 | 0.10 | 98 | 1050.6 |
| 20260502033714 | 38 | 113 | 0.0 | 0.0 | 0.00 | 0.10 | 0.10 | 97 | 1050.6 |
| 20260502033212 | 39 | 113 | 0.0 | 0.0 | 0.00 | 0.10 | 0.10 | 97 | 1050.6 |
| 20260502032708 | 39 | 109 | 0.0 | 0.0 | 0.00 | 0.10 | 0.10 | 97 | 1050.6 |
| 20260502032204 | 39 | 108 | 0.0 | 0.0 | 0.00 | 0.10 | 0.10 | 97 | 1050.6 |
| 20260502031702 | 40 | 114 | 0.0 | 0.0 | 0.00 | 0.10 | 0.10 | 97 | 1050.9 |
| 20260502031200 | 40 | 110 | 0.0 | 0.0 | 0.00 | 0.10 | 0.10 | 97 | 1050.6 |
| 20260502030659 | 40 | 122 | 0.0 | 1.0 | 0.00 | 0.10 | 0.10 | 97 | 1050.9 |
| 20260502030156 | 40 | 113 | 0.0 | 0.0 | 0.00 | 0.10 | 0.10 | 97 | 1051.2 |
| 20260502025653 | 40 | 131 | 1.0 | 1.0 | 0.00 | 0.10 | 0.10 | 96 | 1050.9 |
| 20260502025151 | 40 | 109 | 0.0 | 0.0 | 0.00 | 0.10 | 0.10 | 95 | 1050.9 |
| 20260502024649 | 40 | 112 | 0.0 | 0.0 | 0.00 | 0.10 | 0.10 | 95 | 1050.9 |
| 20260502024147 | 40 | 109 | 0.0 | 0.0 | 0.00 | 0.10 | 0.10 | 95 | 1050.9 |
| 20260502023644 | 40 | 108 | 0.0 | 0.0 | 0.00 | 0.10 | 0.10 | 95 | 1050.9 |
| 20260502023141 | 40 | 108 | 0.0 | 0.0 | 0.00 | 0.10 | 0.10 | 94 | 1050.9 |
| 20260502022638 | 41 | 111 | 0.0 | 0.0 | 0.00 | 0.10 | 0.10 | 94 | 1050.6 |
| 20260502022135 | 41 | 112 | 0.0 | 0.0 | 0.00 | 0.10 | 0.10 | 94 | 1050.6 |